Dillon, MT (59725)

9:39 PM MDT on September 01, 2014 (GMT -0600)
Dillon | Change Station
CLOSE
Current Station
Airport
Location: Dillon,
Elevation: 5240 ft
Nearby Weather Stations

Elev 5240 ft 45.26 °N, 112.55 °W | Updated 46 minutes ago

Clear
Clear
56 °F
Feels Like 56 °F
N
6
Wind Variable Wind from SSE

Today
High -- | Low -- °F
--% Chance of Precip.
Yesterday
High -- | Low -- °F
Precip. -- in
6:52 AM 8:07 PM
Waxing Crescent, 47% visible
Pressure 29.94 in
Visibility 10.0 miles
Clouds Clear
Dew Point 39 °F
Humidity 53%
Rainfall 0.00 in
Snow Depth Not available.
UV 0 out of 12
Pollen 6.70 out of 12
Air Quality Not available.
Flu Activity Not available.
METAR KDLN 020253Z AUTO 15005KT 10SM CLR 13/04 A3001 RMK AO2 SLP136 T01330039 55000

More Conditions Fewer Conditions

Pressure 29.94 in
Visibility 10.0 miles
Clouds Clear
Dew Point 39 °F
Humidity 53%
Rainfall 0.00 in
Snow Depth Not available.
UV 0 out of 12
Pollen 6.70 out of 12
Air Quality Not available.
Flu Activity Not available.
METAR KDLN 020253Z AUTO 15005KT 10SM CLR 13/04 A3001 RMK AO2 SLP136 T01330039 55000

More Conditions Fewer Conditions

10-Day Weather Forecast

Almanac

Astronomy

Sep. 01, 2014 Rise Set
Actual Time 6:52 AM MDT 8:07 PM MDT
Civil Twilight 6:22 AM MDT 8:38 PM MDT
Nautical Twilight 5:45 AM MDT 9:14 PM MDT
Astronomical Twilight 5:06 AM MDT 9:53 PM MDT
Moon 2:00 PM MDT (9/1) 11:53 PM MDT (9/1)
Length of Visible Light 14h 15m
Length of Day
13h 15m
Tomorrow will be 3m 3s shorter.
Waxing Crescent, 47% of the Moon is Illuminated
Today
Waxing Crescent
Sep 2
First Quarter
Sep 8
Full
Sep 15
Last Quarter
Sep 24
New

Today's Extremes

State Highs State Lows

Community

WunderPhotos

Upload Photos

1,749,555 photos uploaded!

WunderBlogs® & News

Nearby

Snow Depth

Station Depth Elevation
Mule Creek 0 in 8300 ft
Short Creek 0 in 7000 ft
Lemhi Ridge 1 in 8100 ft
Darkhorse Lake 0 in 8700 ft
Lone Mountain 0 in 8880 ft

Earthquake Activity

City Distance Mag. Time & Date
Driggs, Idaho 127 miles 3.8 2:09 PM MDT
2014-08-30
Minimum magnitude displayed is 2.5.

Coastal Water Temperatures

Place Temperature
No Stations Reporting

Nearby Weather Stations